Queen B — WDI7992 — position and weather

sailwx.info

Track history (hours):
 
Tides and Currents Weather Stations Pressure Air Temp Water Temp Dewpoint Dewpoint Depression Visibility Wind Speed Wind Dir Waves Ship Positions

Queen B

Owner: Sen Marine LLC, Beverly Hills, CA. More information available from US FCC via Universal Licensing System and Coast Guard Vessel Documentation Center.

Last reported at 2017-Sep-10 11:37 UTC. Time now 2017-Sep-23 16:33 UTC.
Position N 33°58' W 118°27'.
Warning: this ship's position is 13 days out of date.

Length 29 m.

Type: Pleasure craft. MMSI: 367734240.

Date/timePositionNaut miles runAvg speedWind from/ knotsBaromVisibWave heightAir tempDewpointWater temp
2017-Sep-10 11:37N 33°58' W 118°27'0 0.0
2017-Sep-10 11:28N 33°58' W 118°27'0 0.0
2017-Sep-10 10:55N 33°58' W 118°27'0 0.0
2017-Sep-10 09:34N 33°58' W 118°27'0 0.0
2017-Sep-10 09:19N 33°58' W 118°27'0 0.0
2017-Sep-10 07:55N 33°58' W 118°27'0 0.0
2017-Sep-10 07:07N 33°58' W 118°27'0 0.0
2017-Sep-10 06:58N 33°58' W 118°27'0 0.0
2017-Sep-10 06:25N 33°58' W 118°27'0 0.0
2017-Sep-10 05:55N 33°58' W 118°27'0 0.0
2017-Sep-10 05:19N 33°58' W 118°27'0 0.0
2017-Sep-10 04:58N 33°58' W 118°27'8 1.5
2017-Sep-09 23:33N 33°59' W 118°37'123.4
2017-Sep-09 23:30N 33°59' W 118°38'816.3
2017-Sep-09 23:01N 34°01' W 118°47'0 0.0
2017-Sep-09 22:31N 34°01' W 118°47'0 0.0
2017-Sep-09 22:00N 34°01' W 118°47'1 0.6
2017-Sep-09 20:49N 34°01' W 118°46'16 0.8
2017-Sep-09 01:30N 33°58' W 118°27'0 0.0
2017-Sep-09 00:54N 33°58' W 118°27'0 0.0
2017-Sep-09 00:06N 33°58' W 118°27'0 0.0
2017-Sep-09 00:00N 33°58' W 118°27'0 0.0
2017-Sep-08 23:30N 33°58' W 118°27'0 0.0
2017-Sep-08 23:00N 33°58' W 118°27'0 0.0
2017-Sep-08 22:27N 33°58' W 118°27'0 0.0
2017-Sep-08 13:24N 33°58' W 118°27'0 0.0
2017-Sep-08 10:00N 33°58' W 118°27'  
2017-Sep-02 15:11N 33°58' W 118°27'0 0.0
2017-Sep-02 15:00N 33°58' W 118°27'0 0.0
2017-Sep-02 14:17N 33°58' W 118°27'0 0.0
2017-Sep-02 13:53N 33°58' W 118°27'0 0.0
2017-Sep-02 05:53N 33°58' W 118°27'0 0.0
2017-Sep-02 05:17N 33°58' W 118°27'0 0.0
2017-Sep-02 04:53N 33°58' W 118°27'0 0.0
2017-Sep-02 04:18N 33°58' W 118°27'  
Track history (hours):
 
Tides and Currents Weather Stations Pressure Air Temp Water Temp Dewpoint Dewpoint Depression Visibility Wind Speed Wind Dir Waves Ship Positions

Queen B

Owner: Sen Marine LLC, Beverly Hills, CA. More information available from US FCC via Universal Licensing System and Coast Guard Vessel Documentation Center.

Last reported at 2017-Sep-10 11:37 UTC. Time now 2017-Sep-23 16:33 UTC.
Position N 33°58' W 118°27'.
Warning: this ship's position is 13 days out of date.

Length 29 m.

Type: Pleasure craft. MMSI: 367734240.

Date/timePositionNaut miles runAvg speedWind from/ knotsBaromVisibWave heightAir tempDewpointWater temp
2017-Sep-10 11:37N 33°58' W 118°27'0 0.0
2017-Sep-10 11:28N 33°58' W 118°27'0 0.0
2017-Sep-10 10:55N 33°58' W 118°27'0 0.0
2017-Sep-10 09:34N 33°58' W 118°27'0 0.0
2017-Sep-10 09:19N 33°58' W 118°27'0 0.0
2017-Sep-10 07:55N 33°58' W 118°27'0 0.0
2017-Sep-10 07:07N 33°58' W 118°27'0 0.0
2017-Sep-10 06:58N 33°58' W 118°27'0 0.0
2017-Sep-10 06:25N 33°58' W 118°27'0 0.0
2017-Sep-10 05:55N 33°58' W 118°27'0 0.0
2017-Sep-10 05:19N 33°58' W 118°27'0 0.0
2017-Sep-10 04:58N 33°58' W 118°27'8 1.5
2017-Sep-09 23:33N 33°59' W 118°37'123.4
2017-Sep-09 23:30N 33°59' W 118°38'816.3
2017-Sep-09 23:01N 34°01' W 118°47'0 0.0
2017-Sep-09 22:31N 34°01' W 118°47'0 0.0
2017-Sep-09 22:00N 34°01' W 118°47'1 0.6
2017-Sep-09 20:49N 34°01' W 118°46'16 0.8
2017-Sep-09 01:30N 33°58' W 118°27'0 0.0
2017-Sep-09 00:54N 33°58' W 118°27'0 0.0
2017-Sep-09 00:06N 33°58' W 118°27'0 0.0
2017-Sep-09 00:00N 33°58' W 118°27'0 0.0
2017-Sep-08 23:30N 33°58' W 118°27'0 0.0
2017-Sep-08 23:00N 33°58' W 118°27'0 0.0
2017-Sep-08 22:27N 33°58' W 118°27'0 0.0
2017-Sep-08 13:24N 33°58' W 118°27'0 0.0
2017-Sep-08 10:00N 33°58' W 118°27'  
2017-Sep-02 15:11N 33°58' W 118°27'0 0.0
2017-Sep-02 15:00N 33°58' W 118°27'0 0.0
2017-Sep-02 14:17N 33°58' W 118°27'0 0.0
2017-Sep-02 13:53N 33°58' W 118°27'0 0.0
2017-Sep-02 05:53N 33°58' W 118°27'0 0.0
2017-Sep-02 05:17N 33°58' W 118°27'0 0.0
2017-Sep-02 04:53N 33°58' W 118°27'0 0.0
2017-Sep-02 04:18N 33°58' W 118°27'  

Dump ship's entire track history